Time;durP1;ratioP1;P1;durP2;ratioP2;P2;SDS_P1;SDS_P2;PMS_P1;PMS_P2;Temp;Humidity;BMP_temperature;BMP_pressure;BME280_temperature;BME280_humidity;BME280_pressure;Samples;Min_cycle;Max_cycle;Signal;HPM_P1;HPM_P2
2023/10/09 00:00:55;;;;;;;;;;;20.80;91.80;;;;;;5091612;28;19920;-67
2023/10/09 00:02:54;;;;;;;;;;;21.00;91.20;;;;;;5083683;28;19912;-69
2023/10/09 00:05:30;;;;;;;;;;;21.00;90.40;;;;;;5110469;28;19911;-69
2023/10/09 00:07:58;;;;;;;;;;;21.10;90.10;;;;;;5112324;28;19918;-75
2023/10/09 00:10:35;;;;;;;;;;;21.10;90.40;;;;;;5113489;28;19908;-70
2023/10/09 00:13:02;;;;;;;;;;;21.30;89.60;;;;;;5108360;28;19916;-72
2023/10/09 00:15:32;;;;;;;;;;;21.40;89.80;;;;;;5113359;28;19912;-70
2023/10/09 00:18:11;;;;;;;;;;;21.60;88.40;;;;;;5113506;28;19912;-72
2023/10/09 00:20:42;;;;;;;;;;;21.50;87.90;;;;;;5095128;28;19923;-68
2023/10/09 00:23:15;;;;;;;;;;;21.60;85.90;;;;;;5094270;28;20300;-73
2023/10/09 00:26:08;;;;;;;;;;;21.70;85.00;;;;;;5113239;28;19952;-75
2023/10/09 00:28:36;;;;;;;;;;;21.80;86.10;;;;;;5099495;28;20348;-69
2023/10/09 00:31:07;;;;;;;;;;;22.00;86.30;;;;;;5098526;28;20010;-71
2023/10/09 00:33:34;;;;;;;;;;;22.20;84.20;;;;;;5100278;28;19916;-73
2023/10/09 00:36:10;;;;;;;;;;;22.40;83.10;;;;;;5123460;27;19908;-72
2023/10/09 00:38:45;;;;;;;;;;;22.50;82.80;;;;;;5112373;28;19908;-67
2023/10/09 00:41:19;;;;;;;;;;;22.60;82.50;;;;;;5132032;27;19960;-72
2023/10/09 00:43:49;;;;;;;;;;;22.70;84.20;;;;;;5085009;28;20387;-72
2023/10/09 00:48:48;;;;;;;;;;;23.00;84.80;;;;;;5110751;28;19919;-73
2023/10/09 00:51:18;;;;;;;;;;;23.00;85.30;;;;;;5127911;27;19919;-72
2023/10/09 00:53:48;;;;;;;;;;;23.30;84.60;;;;;;5112030;28;19999;-72
2023/10/09 00:56:26;;;;;;;;;;;23.40;84.10;;;;;;5110293;28;20205;-73
2023/10/09 00:58:59;;;;;;;;;;;23.50;85.00;;;;;;5108978;28;20300;-72
2023/10/09 01:01:39;;;;;;;;;;;23.70;85.40;;;;;;5112695;28;19950;-72
2023/10/09 01:04:15;;;;;;;;;;;23.80;84.70;;;;;;5078721;28;19935;-73
2023/10/09 01:06:45;;;;;;;;;;;24.00;85.60;;;;;;5088585;28;20276;-72
2023/10/09 01:09:13;;;;;;;;;;;24.10;83.50;;;;;;5093750;28;19966;-73
2023/10/09 01:14:36;;;;;;;;;;;24.40;83.50;;;;;;5083598;28;20359;-73
2023/10/09 01:17:10;;;;;;;;;;;24.60;85.90;;;;;;5111007;28;20003;-69
2023/10/09 01:19:37;;;;;;;;;;;24.80;84.50;;;;;;5103381;28;19957;-71
2023/10/09 01:22:12;;;;;;;;;;;25.00;82.90;;;;;;5111926;28;19908;-74
2023/10/09 01:24:39;;;;;;;;;;;25.10;81.70;;;;;;5111564;28;19960;-71
2023/10/09 01:27:15;;;;;;;;;;;25.30;81.40;;;;;;5111119;28;19911;-71
2023/10/09 01:29:43;;;;;;;;;;;25.50;83.80;;;;;;5111345;28;19908;-73
2023/10/09 01:32:16;;;;;;;;;;;25.50;82.50;;;;;;5111787;28;19924;-74
2023/10/09 01:37:23;;;;;;;;;;;25.60;82.90;;;;;;5111508;28;19912;-71
2023/10/09 01:39:50;;;;;;;;;;;25.90;84.60;;;;;;5111725;28;19912;-73
2023/10/09 01:42:51;;;;;;;;;;;26.10;81.40;;;;;;5100250;28;20101;-72
2023/10/09 01:45:11;;;;;;;;;;;26.10;80.60;;;;;;5089914;28;20010;-75
2023/10/09 01:47:38;;;;;;;;;;;26.20;80.90;;;;;;5111324;28;20287;-76
2023/10/09 01:50:11;;;;;;;;;;;26.30;80.00;;;;;;5111264;28;20368;-73
2023/10/09 01:52:38;;;;;;;;;;;26.40;82.10;;;;;;5092848;28;19920;-73
2023/10/09 01:55:07;;;;;;;;;;;26.50;81.00;;;;;;5108733;28;19912;-73
2023/10/09 01:57:34;;;;;;;;;;;26.60;78.80;;;;;;5111988;28;20346;-74
2023/10/09 02:00:02;;;;;;;;;;;26.60;80.80;;;;;;5111898;28;20264;-73
2023/10/09 02:05:24;;;;;;;;;;;26.60;77.40;;;;;;5091541;28;19919;-75
2023/10/09 02:07:53;;;;;;;;;;;26.70;79.60;;;;;;5091477;28;20015;-73
2023/10/09 02:10:31;;;;;;;;;;;26.80;77.60;;;;;;5091398;28;19912;-75
2023/10/09 02:12:59;;;;;;;;;;;26.60;77.70;;;;;;5096106;28;19954;-70
2023/10/09 02:15:51;;;;;;;;;;;26.40;77.60;;;;;;5110567;28;19908;-75
2023/10/09 02:20:46;;;;;;;;;;;26.70;79.30;;;;;;5090835;28;19912;-72
2023/10/09 02:23:13;;;;;;;;;;;26.80;76.80;;;;;;5108173;28;19911;-73
2023/10/09 02:25:43;;;;;;;;;;;26.70;78.80;;;;;;5111426;28;19923;-73
2023/10/09 02:28:19;;;;;;;;;;;26.90;77.80;;;;;;5080316;28;19920;-73
2023/10/09 02:30:49;;;;;;;;;;;27.30;75.90;;;;;;5091191;28;19958;-71
2023/10/09 02:33:50;;;;;;;;;;;27.30;75.90;;;;;;5111395;28;20330;-70
2023/10/09 02:36:12;;;;;;;;;;;27.60;73.80;;;;;;5099697;28;19954;-68
2023/10/09 02:38:42;;;;;;;;;;;28.10;75.00;;;;;;5114853;28;19908;-69
2023/10/09 02:43:55;;;;;;;;;;;29.70;71.20;;;;;;5115024;28;20320;-71
2023/10/09 02:46:32;;;;;;;;;;;30.00;70.70;;;;;;5106000;28;19960;-69
2023/10/09 02:49:03;;;;;;;;;;;31.20;69.70;;;;;;5114600;28;19920;-70
2023/10/09 02:51:33;;;;;;;;;;;32.40;67.80;;;;;;5113853;28;20390;-71
2023/10/09 02:54:47;;;;;;;;;;;31.90;65.30;;;;;;5109354;28;19950;-72
2023/10/09 02:57:22;;;;;;;;;;;30.70;66.60;;;;;;5103034;28;20367;-70
2023/10/09 02:59:41;;;;;;;;;;;30.80;67.40;;;;;;5112706;28;20287;-68
2023/10/09 03:02:08;;;;;;;;;;;31.30;64.70;;;;;;5114791;28;20018;-74
2023/10/09 03:04:34;;;;;;;;;;;31.30;64.50;;;;;;5114601;28;19911;-71
2023/10/09 03:07:03;;;;;;;;;;;31.70;63.80;;;;;;5115342;28;19908;-71
2023/10/09 03:09:31;;;;;;;;;;;32.10;62.50;;;;;;5113884;28;19940;-66
2023/10/09 03:12:09;;;;;;;;;;;32.60;61.70;;;;;;5112161;28;20003;-73
2023/10/09 03:14:41;;;;;;;;;;;32.60;60.90;;;;;;5114440;28;19952;-71
2023/10/09 03:17:13;;;;;;;;;;;32.40;58.30;;;;;;5114466;28;19907;-73
2023/10/09 03:19:40;;;;;;;;;;;31.50;59.60;;;;;;5114208;28;20376;-69
2023/10/09 03:22:10;;;;;;;;;;;31.20;63.20;;;;;;5114309;28;19908;-71
2023/10/09 03:24:37;;;;;;;;;;;31.30;59.30;;;;;;5096285;28;19908;-72
2023/10/09 03:27:04;;;;;;;;;;;31.80;60.70;;;;;;5113196;28;19908;-69
2023/10/09 03:29:31;;;;;;;;;;;33.00;59.00;;;;;;5113428;28;19911;-72
2023/10/09 03:31:57;;;;;;;;;;;33.60;58.50;;;;;;5113443;28;20006;-71
2023/10/09 03:34:24;;;;;;;;;;;33.40;58.40;;;;;;5113394;28;19912;-71
2023/10/09 03:37:22;;;;;;;;;;;33.70;61.40;;;;;;5113830;28;20361;-71
2023/10/09 03:42:04;;;;;;;;;;;36.20;56.00;;;;;;5103300;28;19908;-70
2023/10/09 03:44:39;;;;;;;;;;;34.30;57.70;;;;;;5109850;28;19908;-72
2023/10/09 03:47:09;;;;;;;;;;;34.30;56.60;;;;;;5113854;28;19969;-72
2023/10/09 03:49:45;;;;;;;;;;;33.90;57.40;;;;;;5112262;28;19977;-72
2023/10/09 03:52:17;;;;;;;;;;;33.60;57.60;;;;;;5113475;28;19916;-70
2023/10/09 03:54:49;;;;;;;;;;;33.30;57.30;;;;;;5113779;28;19973;-72
2023/10/09 03:57:24;;;;;;;;;;;33.30;57.80;;;;;;5114252;28;19908;-70
2023/10/09 03:59:51;;;;;;;;;;;33.90;57.60;;;;;;5113213;28;19912;-68
2023/10/09 04:02:18;;;;;;;;;;;33.90;56.30;;;;;;5111908;27;19918;-71
2023/10/09 04:04:46;;;;;;;;;;;33.90;56.20;;;;;;5112363;28;19920;-74
2023/10/09 04:07:16;;;;;;;;;;;33.70;55.90;;;;;;5113655;28;19915;-71
2023/10/09 04:10:26;;;;;;;;;;;33.30;56.50;;;;;;5102145;28;19912;-70
2023/10/09 04:12:31;;;;;;;;;;;33.20;58.20;;;;;;5111017;28;20332;-72
2023/10/09 04:15:01;;;;;;;;;;;33.70;56.20;;;;;;5093409;28;19912;-70
2023/10/09 04:17:34;;;;;;;;;;;34.30;56.50;;;;;;5102146;28;19964;-68
2023/10/09 04:22:50;;;;;;;;;;;34.60;55.90;;;;;;5106995;28;20377;-70
2023/10/09 04:25:27;;;;;;;;;;;35.10;54.30;;;;;;5091923;28;19915;-68
2023/10/09 04:27:59;;;;;;;;;;;35.00;54.80;;;;;;5110726;28;19950;-69
2023/10/09 04:30:26;;;;;;;;;;;34.60;54.40;;;;;;5108108;28;20348;-68
2023/10/09 04:32:55;;;;;;;;;;;35.70;54.40;;;;;;5104780;28;19920;-68
2023/10/09 04:35:24;;;;;;;;;;;36.70;52.30;;;;;;5093269;28;19938;-68
2023/10/09 04:38:04;;;;;;;;;;;35.90;51.60;;;;;;5104785;28;19914;-67
2023/10/09 04:43:07;;;;;;;;;;;33.60;53.90;;;;;;5107771;28;20344;-67
2023/10/09 04:48:39;;;;;;;;;;;34.20;55.10;;;;;;5110114;28;19926;-67
2023/10/09 04:51:21;;;;;;;;;;;33.90;54.50;;;;;;5111423;28;20002;-66
2023/10/09 04:54:39;;;;;;;;;;;35.80;55.20;;;;;;5111048;28;19961;-68
2023/10/09 04:56:51;;;;;;;;;;;37.20;52.70;;;;;;5100773;28;19960;-69
2023/10/09 04:59:25;;;;;;;;;;;37.00;51.20;;;;;;5107193;28;19915;-68
2023/10/09 05:01:57;;;;;;;;;;;38.10;51.70;;;;;;5111334;28;19908;-67
2023/10/09 05:04:39;;;;;;;;;;;37.70;51.20;;;;;;5108682;28;19926;-70
2023/10/09 05:10:19;;;;;;;;;;;35.70;52.80;;;;;;5028855;28;19916;-68
2023/10/09 05:12:56;;;;;;;;;;;36.20;53.10;;;;;;5032708;28;19924;-70
2023/10/09 05:15:29;;;;;;;;;;;37.00;52.90;;;;;;5078389;28;19911;-68
2023/10/09 05:17:56;;;;;;;;;;;34.80;54.30;;;;;;5109218;28;20336;-71
2023/10/09 05:23:00;;;;;;;;;;;34.60;54.80;;;;;;5110398;28;19968;-68
2023/10/09 05:28:31;;;;;;;;;;;34.10;56.40;;;;;;5111727;28;20321;-69
2023/10/09 05:31:44;;;;;;;;;;;34.60;56.10;;;;;;5108914;28;19922;-68
2023/10/09 05:34:01;;;;;;;;;;;34.80;56.10;;;;;;5104156;28;19916;-72
2023/10/09 05:39:17;;;;;;;;;;;33.40;57.80;;;;;;5110383;28;19908;-73
2023/10/09 05:41:52;;;;;;;;;;;32.10;58.60;;;;;;5106815;28;20007;-72
2023/10/09 06:14:12;;;;;;;;;;;33.30;56.30;;;;;;5095379;28;20343;-74
2023/10/09 06:16:43;;;;;;;;;;;32.40;57.00;;;;;;5095774;28;19919;-73
2023/10/09 06:24:19;;;;;;;;;;;31.70;59.90;;;;;;5115651;28;19919;-71
2023/10/09 06:34:52;;;;;;;;;;;33.30;57.40;;;;;;5095018;28;19909;-73
2023/10/09 06:45:16;;;;;;;;;;;33.10;58.10;;;;;;5111616;28;19916;-74
2023/10/09 06:47:55;;;;;;;;;;;33.50;58.40;;;;;;5114181;28;20372;-69
2023/10/09 06:50:25;;;;;;;;;;;34.10;57.30;;;;;;5114191;28;19950;-72
2023/10/09 06:53:57;;;;;;;;;;;34.40;56.40;;;;;;5094341;28;19916;-73
2023/10/09 06:55:48;;;;;;;;;;;34.00;57.80;;;;;;5108831;28;20011;-69
2023/10/09 06:58:27;;;;;;;;;;;32.70;58.70;;;;;;5110466;28;19930;-70
2023/10/09 07:01:19;;;;;;;;;;;33.20;58.40;;;;;;5114493;28;19939;-74
2023/10/09 07:03:52;;;;;;;;;;;33.90;57.90;;;;;;5114658;28;20249;-73
2023/10/09 07:06:48;;;;;;;;;;;33.30;57.20;;;;;;5111039;27;19908;-71
2023/10/09 07:17:00;;;;;;;;;;;28.40;61.90;;;;;;5111899;28;19969;-67
2023/10/09 07:22:03;;;;;;;;;;;26.60;65.10;;;;;;5110165;28;19914;-67
2023/10/09 07:24:49;;;;;;;;;;;25.80;66.60;;;;;;5109290;27;19916;-73
2023/10/09 07:27:43;;;;;;;;;;;24.90;68.60;;;;;;5106330;27;19912;-72
2023/10/09 07:38:55;;;;;;;;;;;23.40;72.80;;;;;;5110950;28;19915;-73
2023/10/09 07:43:39;;;;;;;;;;;23.00;75.80;;;;;;5113588;28;19999;-71
2023/10/09 07:48:48;;;;;;;;;;;22.70;76.80;;;;;;5110396;28;19926;-69
2023/10/09 07:51:16;;;;;;;;;;;22.60;76.80;;;;;;5114138;28;19959;-71
2023/10/09 07:53:45;;;;;;;;;;;22.50;77.20;;;;;;5113904;28;20379;-73
2023/10/09 07:56:20;;;;;;;;;;;22.30;77.40;;;;;;5114853;28;19960;-72
2023/10/09 07:58:48;;;;;;;;;;;22.20;77.30;;;;;;5113635;28;19908;-74
2023/10/09 08:01:15;;;;;;;;;;;22.10;78.20;;;;;;5113487;28;20558;-74
2023/10/09 08:03:45;;;;;;;;;;;22.00;77.80;;;;;;5105510;28;19912;-75
2023/10/09 08:16:51;;;;;;;;;;;21.40;75.70;;;;;;5114329;28;19908;-72
2023/10/09 08:19:51;;;;;;;;;;;21.30;76.40;;;;;;5112823;28;19953;-75
2023/10/09 08:24:58;;;;;;;;;;;21.20;77.20;;;;;;5108681;28;19919;-77
2023/10/09 08:27:54;;;;;;;;;;;21.20;77.80;;;;;;5111515;28;19912;-70
2023/10/09 08:32:42;;;;;;;;;;;21.10;79.20;;;;;;5112299;28;19923;-76
2023/10/09 08:37:58;;;;;;;;;;;20.90;81.60;;;;;;5105202;28;19919;-73
2023/10/09 08:40:32;;;;;;;;;;;20.90;82.60;;;;;;5091154;28;19915;-74
2023/10/09 08:43:08;;;;;;;;;;;20.80;84.20;;;;;;5091549;28;19908;-75
2023/10/09 08:45:41;;;;;;;;;;;20.70;86.00;;;;;;5092505;27;20702;-75
2023/10/09 08:48:15;;;;;;;;;;;20.70;87.50;;;;;;5111692;28;19943;-74
2023/10/09 08:50:45;;;;;;;;;;;20.60;88.90;;;;;;5096985;28;19918;-73
2023/10/09 08:53:12;;;;;;;;;;;20.50;89.80;;;;;;5095488;28;19920;-73
2023/10/09 08:55:40;;;;;;;;;;;20.50;90.40;;;;;;5097375;27;19912;-74
2023/10/09 08:58:34;;;;;;;;;;;20.40;90.90;;;;;;5113456;28;19994;-74
2023/10/09 09:00:55;;;;;;;;;;;20.30;91.80;;;;;;5097164;28;20393;-74
2023/10/09 09:03:25;;;;;;;;;;;20.30;92.60;;;;;;5112954;28;20372;-74
2023/10/09 09:06:02;;;;;;;;;;;20.30;93.50;;;;;;5108440;28;19919;-73
2023/10/09 09:08:30;;;;;;;;;;;20.20;94.50;;;;;;5108650;28;20573;-71
2023/10/09 09:11:17;;;;;;;;;;;20.20;95.60;;;;;;5110165;28;19941;-74
2023/10/09 09:13:51;;;;;;;;;;;20.10;97.20;;;;;;5092759;28;19908;-71
2023/10/09 09:16:18;;;;;;;;;;;20.10;98.50;;;;;;5087753;28;19927;-71
2023/10/09 09:18:56;;;;;;;;;;;20.10;99.60;;;;;;5106303;27;19916;-70
2023/10/09 09:21:23;;;;;;;;;;;19.90;99.90;;;;;;5114709;27;19968;-73
2023/10/09 09:23:59;;;;;;;;;;;19.90;99.90;;;;;;5110391;27;19912;-75
2023/10/09 09:26:44;;;;;;;;;;;19.80;99.90;;;;;;5107252;28;19918;-74
2023/10/09 09:29:12;;;;;;;;;;;19.80;99.90;;;;;;5121209;28;19930;-75
2023/10/09 09:31:39;;;;;;;;;;;19.60;99.90;;;;;;5115779;27;20019;-73
2023/10/09 09:34:22;;;;;;;;;;;19.70;99.90;;;;;;5103229;28;19920;-69
2023/10/09 09:36:56;;;;;;;;;;;19.60;99.90;;;;;;5113892;28;20445;-73
2023/10/09 09:39:29;;;;;;;;;;;19.70;99.90;;;;;;5127234;28;19915;-70
2023/10/09 09:42:13;;;;;;;;;;;19.70;99.90;;;;;;5107657;28;20356;-75
2023/10/09 09:44:46;;;;;;;;;;;19.60;99.90;;;;;;5112659;28;20380;-72
2023/10/09 09:47:13;;;;;;;;;;;19.70;99.90;;;;;;5109819;28;19912;-70
2023/10/09 09:49:43;;;;;;;;;;;19.70;99.90;;;;;;5116120;27;20375;-75
2023/10/09 09:52:10;;;;;;;;;;;19.70;99.90;;;;;;5130776;27;19927;-69
2023/10/09 09:54:39;;;;;;;;;;;19.60;99.90;;;;;;5120494;27;20357;-68
2023/10/09 09:57:12;;;;;;;;;;;19.60;99.90;;;;;;5116844;27;19911;-70
2023/10/09 09:59:54;;;;;;;;;;;19.60;99.90;;;;;;5107919;27;19908;-69
2023/10/09 10:02:23;;;;;;;;;;;19.70;99.90;;;;;;5113245;27;19912;-68
2023/10/09 10:04:52;;;;;;;;;;;19.70;99.90;;;;;;5120398;27;19918;-68
2023/10/09 10:07:21;;;;;;;;;;;19.60;99.90;;;;;;5114522;27;19912;-73
2023/10/09 10:09:54;;;;;;;;;;;19.60;99.90;;;;;;5115166;27;19912;-71
2023/10/09 10:12:41;;;;;;;;;;;19.50;99.90;;;;;;5104917;27;19935;-75
2023/10/09 10:15:17;;;;;;;;;;;19.50;99.90;;;;;;5090031;28;19915;-69
2023/10/09 10:17:59;;;;;;;;;;;19.50;99.90;;;;;;5094312;28;19907;-74
2023/10/09 10:20:26;;;;;;;;;;;19.50;99.90;;;;;;5115555;27;19916;-73
2023/10/09 10:23:12;;;;;;;;;;;19.40;99.90;;;;;;5116521;27;19998;-69
2023/10/09 10:25:41;;;;;;;;;;;19.40;99.90;;;;;;5114885;27;19919;-72
2023/10/09 10:28:28;;;;;;;;;;;19.30;99.90;;;;;;5110818;27;20356;-70
2023/10/09 10:30:55;;;;;;;;;;;19.40;99.90;;;;;;5114333;27;19915;-73
2023/10/09 10:33:27;;;;;;;;;;;19.30;99.90;;;;;;5117448;27;19919;-73
2023/10/09 10:35:54;;;;;;;;;;;19.30;99.90;;;;;;5116452;27;20392;-72
2023/10/09 10:38:36;;;;;;;;;;;19.20;99.90;;;;;;5114036;28;19908;-74
2023/10/09 10:41:16;;;;;;;;;;;19.20;99.90;;;;;;5113508;28;19912;-72
2023/10/09 10:46:40;;;;;;;;;;;19.10;99.90;;;;;;5111802;27;19912;-73
2023/10/09 10:51:41;;;;;;;;;;;19.00;99.90;;;;;;5114401;27;19924;-74
2023/10/09 10:54:45;;;;;;;;;;;19.00;99.90;;;;;;5111774;27;19951;-71
2023/10/09 10:57:53;;;;;;;;;;;19.00;99.90;;;;;;5111445;27;19955;-73
2023/10/09 11:03:16;;;;;;;;;;;18.80;99.90;;;;;;5116916;27;19923;-72
2023/10/09 11:05:50;;;;;;;;;;;18.90;99.90;;;;;;5113404;27;20011;-73
2023/10/09 11:08:22;;;;;;;;;;;18.80;99.90;;;;;;5116145;27;19915;-67
2023/10/09 11:10:54;;;;;;;;;;;18.70;99.90;;;;;;5105356;27;19937;-73
2023/10/09 11:13:34;;;;;;;;;;;18.60;99.90;;;;;;5112477;27;19916;-72
2023/10/09 11:16:24;;;;;;;;;;;18.60;99.90;;;;;;5109090;27;20359;-71
2023/10/09 11:18:51;;;;;;;;;;;18.50;99.90;;;;;;5111431;27;19918;-75
2023/10/09 11:23:57;;;;;;;;;;;18.40;99.90;;;;;;5114067;27;19915;-72
2023/10/09 11:26:31;;;;;;;;;;;18.30;99.90;;;;;;5116217;27;20386;-73
2023/10/09 11:32:01;;;;;;;;;;;18.20;99.90;;;;;;5112317;27;19937;-73
2023/10/09 11:34:37;;;;;;;;;;;18.20;99.90;;;;;;5113302;27;20279;-74
2023/10/09 11:37:25;;;;;;;;;;;18.10;99.90;;;;;;5115479;27;19912;-72
2023/10/09 11:39:52;;;;;;;;;;;18.00;99.90;;;;;;5114732;27;19999;-73
2023/10/09 11:42:48;;;;;;;;;;;18.00;99.90;;;;;;5116639;27;19911;-73
2023/10/09 11:45:28;;;;;;;;;;;18.00;99.90;;;;;;5113984;27;20268;-72
2023/10/09 11:47:58;;;;;;;;;;;18.00;99.90;;;;;;5105598;27;19959;-71
2023/10/09 11:50:43;;;;;;;;;;;17.90;99.90;;;;;;5109400;27;19912;-74
2023/10/09 11:56:09;;;;;;;;;;;17.80;99.90;;;;;;5095430;27;19911;-74
2023/10/09 11:58:40;;;;;;;;;;;17.80;99.90;;;;;;5115376;27;19915;-74
2023/10/09 12:01:20;;;;;;;;;;;17.90;99.90;;;;;;5112336;27;19995;-69
2023/10/09 12:03:49;;;;;;;;;;;17.80;99.90;;;;;;5119240;27;19914;-74
2023/10/09 12:06:18;;;;;;;;;;;17.80;99.90;;;;;;5115306;27;19936;-73
2023/10/09 12:08:49;;;;;;;;;;;17.80;99.90;;;;;;5117053;28;19926;-74
2023/10/09 12:11:34;;;;;;;;;;;17.70;99.90;;;;;;5133250;27;19933;-74
2023/10/09 12:14:01;;;;;;;;;;;17.70;99.90;;;;;;5117094;27;20326;-69
2023/10/09 12:16:32;;;;;;;;;;;17.70;99.90;;;;;;5127331;27;20275;-67
2023/10/09 12:18:59;;;;;;;;;;;17.70;99.90;;;;;;5123213;27;19978;-72
2023/10/09 12:21:28;;;;;;;;;;;17.70;99.90;;;;;;5116445;27;19935;-68
2023/10/09 12:23:57;;;;;;;;;;;17.70;99.90;;;;;;5130751;27;19907;-72
2023/10/09 12:26:24;;;;;;;;;;;17.70;99.90;;;;;;5119627;27;19908;-73
2023/10/09 12:28:51;;;;;;;;;;;17.70;99.90;;;;;;5123711;27;19920;-75
2023/10/09 12:31:21;;;;;;;;;;;17.70;99.90;;;;;;5126758;27;19927;-73
2023/10/09 12:33:49;;;;;;;;;;;17.60;99.90;;;;;;5097988;27;20292;-75
2023/10/09 12:36:19;;;;;;;;;;;17.60;99.90;;;;;;5110235;28;20380;-69
2023/10/09 12:38:52;;;;;;;;;;;17.60;99.90;;;;;;5122143;27;19907;-69
2023/10/09 12:41:28;;;;;;;;;;;17.70;99.90;;;;;;5101992;28;19951;-71
2023/10/09 12:43:55;;;;;;;;;;;17.70;99.90;;;;;;5130428;27;20352;-71
2023/10/09 12:46:25;;;;;;;;;;;17.80;99.90;;;;;;5118162;27;19915;-72
2023/10/09 12:48:54;;;;;;;;;;;17.80;99.90;;;;;;5123768;27;19973;-75
2023/10/09 12:51:25;;;;;;;;;;;17.80;99.90;;;;;;5127026;27;20440;-72
2023/10/09 12:53:57;;;;;;;;;;;17.80;99.90;;;;;;5116607;27;20357;-73
2023/10/09 12:56:32;;;;;;;;;;;17.80;99.90;;;;;;5127463;27;20245;-73
2023/10/09 12:59:00;;;;;;;;;;;17.80;99.90;;;;;;5112645;28;19965;-75
2023/10/09 13:01:31;;;;;;;;;;;17.80;99.90;;;;;;5111073;27;20368;-71
2023/10/09 13:03:59;;;;;;;;;;;17.70;99.90;;;;;;5128501;27;20375;-72
2023/10/09 13:06:27;;;;;;;;;;;17.70;99.90;;;;;;5118539;27;19973;-74
2023/10/09 13:08:59;;;;;;;;;;;17.80;99.90;;;;;;5123283;27;19908;-72
2023/10/09 13:11:26;;;;;;;;;;;17.80;99.90;;;;;;5123116;27;20560;-67
2023/10/09 13:13:53;;;;;;;;;;;17.80;99.90;;;;;;5106797;27;19916;-72
2023/10/09 13:16:23;;;;;;;;;;;17.70;99.90;;;;;;5126145;27;20364;-69
2023/10/09 13:18:53;;;;;;;;;;;17.70;99.90;;;;;;5123488;27;19912;-71
2023/10/09 13:21:21;;;;;;;;;;;17.70;99.90;;;;;;5124908;27;19915;-71
2023/10/09 13:23:49;;;;;;;;;;;17.70;99.90;;;;;;5115854;27;20045;-72
2023/10/09 13:26:29;;;;;;;;;;;17.60;99.90;;;;;;5128103;27;19934;-73
2023/10/09 13:28:57;;;;;;;;;;;17.50;99.90;;;;;;5121291;27;19958;-71
2023/10/09 13:31:28;;;;;;;;;;;17.50;99.90;;;;;;5108418;28;20004;-72
2023/10/09 13:33:55;;;;;;;;;;;17.50;99.90;;;;;;5114635;28;19911;-73
2023/10/09 13:36:31;;;;;;;;;;;17.50;99.90;;;;;;5108718;28;20365;-73
2023/10/09 13:41:47;;;;;;;;;;;17.40;99.90;;;;;;5116388;28;19919;-72
2023/10/09 13:44:14;;;;;;;;;;;17.40;99.90;;;;;;5128398;28;19912;-71
2023/10/09 13:46:44;;;;;;;;;;;17.40;99.90;;;;;;5119220;28;20360;-74
2023/10/09 13:49:14;;;;;;;;;;;17.30;99.90;;;;;;5120490;28;20018;-72
2023/10/09 13:51:44;;;;;;;;;;;17.30;99.90;;;;;;5128822;28;20243;-73
2023/10/09 13:54:21;;;;;;;;;;;17.40;99.90;;;;;;5100027;28;19911;-74
2023/10/09 13:56:52;;;;;;;;;;;17.40;99.90;;;;;;5122871;28;19908;-73
2023/10/09 13:59:28;;;;;;;;;;;17.30;99.90;;;;;;5125768;28;19915;-73
2023/10/09 14:01:55;;;;;;;;;;;17.30;99.90;;;;;;5115741;28;19959;-72
2023/10/09 14:04:22;;;;;;;;;;;17.30;99.90;;;;;;5127239;28;19970;-71
2023/10/09 14:06:56;;;;;;;;;;;17.30;99.90;;;;;;5118829;28;19918;-73
2023/10/09 14:09:38;;;;;;;;;;;17.40;99.90;;;;;;5126626;28;19907;-72
2023/10/09 14:12:13;;;;;;;;;;;17.40;99.90;;;;;;5115326;28;20360;-73
2023/10/09 14:14:49;;;;;;;;;;;17.30;99.90;;;;;;5124084;28;19919;-72
2023/10/09 14:17:28;;;;;;;;;;;17.30;99.90;;;;;;5118541;28;19955;-73
2023/10/09 14:20:00;;;;;;;;;;;17.20;99.90;;;;;;5115835;28;19907;-75
2023/10/09 14:22:27;;;;;;;;;;;17.30;99.90;;;;;;5125828;28;19914;-73
2023/10/09 14:24:57;;;;;;;;;;;17.20;99.90;;;;;;5118841;28;19908;-74
2023/10/09 14:27:35;;;;;;;;;;;17.30;99.90;;;;;;5119969;28;19911;-73
2023/10/09 14:30:12;;;;;;;;;;;17.30;99.90;;;;;;5128601;28;19951;-73
2023/10/09 14:32:47;;;;;;;;;;;17.30;99.90;;;;;;5119964;27;19923;-71
2023/10/09 14:35:14;;;;;;;;;;;17.20;99.90;;;;;;5122901;27;20003;-74
2023/10/09 14:37:41;;;;;;;;;;;17.20;99.90;;;;;;5132542;27;19908;-71
2023/10/09 14:40:13;;;;;;;;;;;17.20;99.90;;;;;;5102659;27;20346;-72
2023/10/09 14:42:43;;;;;;;;;;;17.10;99.90;;;;;;5134227;27;19911;-73
2023/10/09 14:45:15;;;;;;;;;;;17.10;99.90;;;;;;5123139;27;19908;-69
2023/10/09 14:47:48;;;;;;;;;;;17.10;99.90;;;;;;5132145;27;19915;-68
2023/10/09 14:50:14;;;;;;;;;;;17.10;99.90;;;;;;5120071;27;19911;-70
2023/10/09 14:52:41;;;;;;;;;;;17.10;99.90;;;;;;5127833;27;19916;-75
2023/10/09 14:55:09;;;;;;;;;;;17.10;99.90;;;;;;5127569;27;19994;-73
2023/10/09 14:57:36;;;;;;;;;;;17.00;99.90;;;;;;5119263;27;19912;-71
2023/10/09 15:00:10;;;;;;;;;;;17.00;99.90;;;;;;5131703;27;20301;-75
2023/10/09 15:02:37;;;;;;;;;;;17.00;99.90;;;;;;5115999;27;20006;-74
2023/10/09 15:05:04;;;;;;;;;;;17.00;99.90;;;;;;5117874;27;19911;-73
2023/10/09 15:07:31;;;;;;;;;;;17.00;99.90;;;;;;5133016;27;19911;-70
2023/10/09 15:10:03;;;;;;;;;;;16.90;99.90;;;;;;5117763;27;19911;-71
2023/10/09 15:12:30;;;;;;;;;;;17.00;99.90;;;;;;5128393;27;19916;-71
2023/10/09 15:14:57;;;;;;;;;;;17.00;99.90;;;;;;5115527;27;19908;-69
2023/10/09 15:17:24;;;;;;;;;;;17.00;99.90;;;;;;5129463;27;19911;-73
2023/10/09 15:19:56;;;;;;;;;;;17.00;99.90;;;;;;5116767;27;19998;-72
2023/10/09 15:22:23;;;;;;;;;;;17.00;99.90;;;;;;5120062;27;20398;-72
2023/10/09 15:24:49;;;;;;;;;;;17.00;99.90;;;;;;5126005;27;20006;-71
2023/10/09 15:27:16;;;;;;;;;;;17.10;99.90;;;;;;5127883;27;20275;-72
2023/10/09 15:29:45;;;;;;;;;;;17.10;99.90;;;;;;5117934;27;19908;-72
2023/10/09 15:32:15;;;;;;;;;;;17.00;99.90;;;;;;5131083;27;19916;-73
2023/10/09 15:34:41;;;;;;;;;;;17.10;99.90;;;;;;5107124;28;19912;-73
2023/10/09 15:37:08;;;;;;;;;;;17.10;99.90;;;;;;5117587;27;20252;-73
2023/10/09 15:39:35;;;;;;;;;;;17.10;99.90;;;;;;5130567;27;19915;-69
2023/10/09 15:42:06;;;;;;;;;;;17.10;99.90;;;;;;5117656;27;19915;-72
2023/10/09 15:44:39;;;;;;;;;;;17.00;99.90;;;;;;5126747;27;19915;-72
2023/10/09 15:47:08;;;;;;;;;;;17.00;99.90;;;;;;5099686;28;20360;-72
2023/10/09 15:49:41;;;;;;;;;;;17.00;99.90;;;;;;5129865;27;20271;-73
2023/10/09 15:52:08;;;;;;;;;;;17.00;99.90;;;;;;5100926;27;20017;-71
2023/10/09 15:54:36;;;;;;;;;;;17.00;99.90;;;;;;5127059;27;20356;-73
2023/10/09 15:57:03;;;;;;;;;;;17.00;99.90;;;;;;5125101;27;19912;-73
2023/10/09 15:59:32;;;;;;;;;;;17.00;99.90;;;;;;5119839;27;19990;-72
2023/10/09 16:01:59;;;;;;;;;;;16.90;99.90;;;;;;5131354;27;19959;-74
2023/10/09 16:04:25;;;;;;;;;;;16.90;99.90;;;;;;5120829;27;19911;-72
2023/10/09 16:06:53;;;;;;;;;;;16.90;99.90;;;;;;5135023;27;19922;-72
2023/10/09 16:09:21;;;;;;;;;;;16.90;99.90;;;;;;5124546;27;20340;-74
2023/10/09 16:11:48;;;;;;;;;;;16.80;99.90;;;;;;5127222;27;19955;-73
2023/10/09 16:14:15;;;;;;;;;;;16.90;99.90;;;;;;5111251;27;19918;-73
2023/10/09 16:16:42;;;;;;;;;;;16.80;99.90;;;;;;5113796;27;19957;-71
2023/10/09 16:19:12;;;;;;;;;;;16.80;99.90;;;;;;5126512;27;19915;-75
2023/10/09 16:21:39;;;;;;;;;;;16.80;99.90;;;;;;5117428;27;19912;-71
2023/10/09 16:24:06;;;;;;;;;;;16.70;99.90;;;;;;5130947;27;20359;-74
2023/10/09 16:26:55;;;;;;;;;;;16.80;99.90;;;;;;5120904;27;19908;-73
2023/10/09 16:29:22;;;;;;;;;;;16.70;99.90;;;;;;5120267;27;19907;-73
2023/10/09 16:31:49;;;;;;;;;;;16.70;99.90;;;;;;5130558;27;20009;-70
2023/10/09 16:34:15;;;;;;;;;;;16.70;99.90;;;;;;5113368;27;20258;-70
2023/10/09 16:36:42;;;;;;;;;;;16.70;99.90;;;;;;5125446;27;19995;-72
2023/10/09 16:39:18;;;;;;;;;;;16.70;99.90;;;;;;5125605;27;20343;-73
2023/10/09 16:41:45;;;;;;;;;;;16.60;99.90;;;;;;5097133;28;19923;-72
2023/10/09 16:44:16;;;;;;;;;;;16.70;99.90;;;;;;5128740;27;20014;-74
2023/10/09 16:46:44;;;;;;;;;;;16.60;99.90;;;;;;5121338;27;19966;-73
2023/10/09 16:49:13;;;;;;;;;;;16.70;99.90;;;;;;5120920;27;20484;-74
2023/10/09 16:51:42;;;;;;;;;;;16.60;99.90;;;;;;5129753;27;20509;-74
2023/10/09 16:54:14;;;;;;;;;;;16.60;99.90;;;;;;5106641;27;20371;-72
2023/10/09 16:56:42;;;;;;;;;;;16.60;99.90;;;;;;5125037;27;19908;-74
2023/10/09 16:59:14;;;;;;;;;;;16.60;99.90;;;;;;5125506;27;20005;-73
2023/10/09 17:01:42;;;;;;;;;;;16.60;99.90;;;;;;5115497;27;19915;-72
2023/10/09 17:04:11;;;;;;;;;;;16.60;99.90;;;;;;5097810;27;20402;-73
2023/10/09 17:06:39;;;;;;;;;;;16.50;99.90;;;;;;5120892;27;20411;-73
2023/10/09 17:09:10;;;;;;;;;;;16.60;99.90;;;;;;5122388;27;19908;-73
2023/10/09 17:11:37;;;;;;;;;;;16.60;99.90;;;;;;5128933;27;19911;-69
2023/10/09 17:14:06;;;;;;;;;;;16.50;99.90;;;;;;5116545;27;19914;-67
2023/10/09 17:16:33;;;;;;;;;;;16.50;99.90;;;;;;5126945;27;20279;-69